WetterOnline ( http://www.wetteronline.de )

Wetter aktuell Chemnitz

Aktuelles Wetter: Chemnitz (420m)

6-stündlich | Neueste Meldungen
Ortszeit Temperatur Wetter
Fr, 22.06. 14:00 8.9° C Sprühregen
Fr, 22.06. 8:00 8.5° C bedeckt
Fr, 22.06. 2:00 7.4° C fast wolkenlos
Do, 21.06. 20:00 16.2° C wolkig
Do, 21.06. 14:00 25.8° C wolkig
Do, 21.06. 8:00 22.0° C wolkenlos
Do, 21.06. 2:00 18.5° C wolkenlos
Mi, 20.06. 20:00 27.1° C bewölkt
Ortszeit Temperatur Wetter
Fr, 22.06. 16:30 11.7° C bewölkt
Fr, 22.06. 16:20 11.7° C bewölkt
Fr, 22.06. 16:10 12.2° C bedeckt
Fr, 22.06. 16:00 10.8° C bedeckt
Fr, 22.06. 15:50 10.8° C bedeckt
Fr, 22.06. 15:40 10.3° C bedeckt
Fr, 22.06. 15:30 9.7° C Sprühregen
Fr, 22.06. 15:00 9.8° C leichter Regen
Fr, 22.06. 14:30 10.2° C bedeckt
Fr, 22.06. 14:00 8.9° C Sprühregen
Fr, 22.06. 13:30 8.9° C leichter Regen
Ortszeit Relative Feuchte Sichtweite
Fr, 22.06. 14:00 90% 12 km
Fr, 22.06. 8:00 74% 55 km
Fr, 22.06. 2:00 78% 70 km
Do, 21.06. 20:00 44% 25 km
Do, 21.06. 14:00 38% 19 km
Do, 21.06. 8:00 64% 23 km
Do, 21.06. 2:00 74% 28 km
Mi, 20.06. 20:00 49% 30 km
Ortszeit Relative Feuchte Sichtweite
Fr, 22.06. 16:30 77% 40 km
Fr, 22.06. 16:20 77% -
Fr, 22.06. 16:10 81% -
Fr, 22.06. 16:00 84% 30 km
Fr, 22.06. 15:50 84% -
Fr, 22.06. 15:40 88% -
Fr, 22.06. 15:30 91% 14 km
Fr, 22.06. 15:00 86% 26 km
Fr, 22.06. 14:30 89% 22 km
Fr, 22.06. 14:00 90% 12 km
Fr, 22.06. 13:30 88% 12 km
Ortszeit Niederschlagsmenge Niederschlagsart
Fr, 22.06. 14:00 2 l/m2 in 6 Std. Regen
Fr, 22.06. 8:00 0.0 l/m2 in 12 Std. -
Fr, 22.06. 2:00 0.0 l/m2 in 6 Std. -
Do, 21.06. 20:00 0.6 l/m2 in 12 Std. Regen
Do, 21.06. 14:00 0.0 l/m2 in 6 Std. -
Do, 21.06. 8:00 0.0 l/m2 in 12 Std. -
Do, 21.06. 2:00 0.0 l/m2 in 6 Std. -
Mi, 20.06. 20:00 0.1 l/m2 in 12 Std. Sprühregen
Ortszeit Niederschlagsmenge Niederschlagsart
Fr, 22.06. 16:30 0.0 l/m2 in 1 Std. -
Fr, 22.06. 16:20 keine Meldung -
Fr, 22.06. 16:10 keine Meldung -
Fr, 22.06. 16:00 1.5 l/m2 in 1 Std. Regen
Fr, 22.06. 15:50 keine Meldung -
Fr, 22.06. 15:40 keine Meldung -
Fr, 22.06. 15:30 1.5 l/m2 in 1 Std. -
Fr, 22.06. 15:00 0.1 l/m2 in 1 Std. Regen
Fr, 22.06. 14:30 0.1 l/m2 in 1 Std. Schneeregen
Fr, 22.06. 14:00 0.3 l/m2 in 1 Std. Regen
Fr, 22.06. 13:30 0.1 l/m2 in 1 Std. -
Ortszeit Stärke Spitze Richtung
km/h Bft. km/h Grad Sektor
Fr, 22.06. 14:00 25 4 47 260° W
Fr, 22.06. 8:00 24 4 37 250° W
Fr, 22.06. 2:00 9 2 37 260° W
Do, 21.06. 20:00 25 4 65 310° NW
Do, 21.06. 14:00 39 6 59 270° W
Do, 21.06. 8:00 15 3 20 220° SW
Do, 21.06. 2:00 11 2 18 210° SW
Mi, 20.06. 20:00 4 1 29 270° W
Ortszeit Stärke Spitze Richtung
km/h Bft. km/h Grad Sektor
Fr, 22.06. 16:30 18 3 32 290° W
Fr, 22.06. 16:20 18 3 - 290° W
Fr, 22.06. 16:10 20 4 - 280° W
Fr, 22.06. 16:00 18 3 36 280° W
Fr, 22.06. 15:50 18 3 - 280° W
Fr, 22.06. 15:40 24 4 - 280° W
Fr, 22.06. 15:30 19 3 35 280° W
Fr, 22.06. 15:00 22 4 41 260° W
Fr, 22.06. 14:30 25 4 40 260° W
Fr, 22.06. 14:00 25 4 47 260° W
Fr, 22.06. 13:30 28 4 48 260° W
Ortszeit Untergrenze Bedeckung Gattung
total tief tief mittel hoch
Fr, 22.06. 14:00 300 m 7/8 7/8 - - -
Fr, 22.06. 8:00 660 m 8/8 8/8 - - -
Fr, 22.06. 2:00 1080 m 1/8 1/8 - - -
Do, 21.06. 20:00 1800 m 7/8 5/8 - - -
Do, 21.06. 14:00 1800 m 7/8 1/8 - - -
Do, 21.06. 8:00 - 0/8 0/8 - - -
Do, 21.06. 2:00 - 0/8 0/8 - - -
Mi, 20.06. 20:00 1800 m 7/8 - - - -
Ortszeit Bedeckungsgrad in Achtel und Wolkenuntergrenze
Fr, 22.06. 16:30 1(570m) 5(1500m) 7(1500m)
Fr, 22.06. 16:20 1(570m) 5(1500m) 7(1500m)
Fr, 22.06. 16:10 1(540m) 5(1470m) 8(1500m)
Fr, 22.06. 16:00 3(810m) 7(1440m) 8(1500m)
Fr, 22.06. 15:50 3(810m) 7(1440m) 8(1500m)
Fr, 22.06. 15:40 2(300m) 7(990m) 8(1200m)
Fr, 22.06. 15:30 3(<30m) 6(270m) 7(1020m)
Fr, 22.06. 15:00 4(390m) 7(810m) 8(1470m)
Fr, 22.06. 14:30 6(270m) 8(810m) 8(1140m)
Fr, 22.06. 14:00 5(300m) 7(600m) 7(1020m)
Fr, 22.06. 13:30 2(360m) 5(600m) 7(840m)
Ortszeit Luftdruck NN (hPa) Tendenz (hPa in 3 Std.)
Fr, 22.06. 14:00 1021 + 0,6
Fr, 22.06. 8:00 1020 - 0,4
Fr, 22.06. 2:00 1020 + 0,4
Do, 21.06. 20:00 1016 + 0,7
Do, 21.06. 14:00 1009 - 0,4
Do, 21.06. 8:00 1013 - 1,2
Do, 21.06. 2:00 1016 - 0,7
Mi, 20.06. 20:00 1016 - 1,5
Ortszeit Luftdruck NN (hPa) Tendenz (hPa in 3 Std.)
Fr, 22.06. 16:30 1020 + 0,3
Fr, 22.06. 16:20 1020 keine Meldung
Fr, 22.06. 16:10 1020 keine Meldung
Fr, 22.06. 16:00 1021 + 0,5
Fr, 22.06. 15:50 1021 keine Meldung
Fr, 22.06. 15:40 1021 keine Meldung
Fr, 22.06. 15:30 1021 + 0,5
Fr, 22.06. 15:00 1020 + 0,3
Fr, 22.06. 14:30 1020 + 0,3
Fr, 22.06. 14:00 1021 + 0,6
Fr, 22.06. 13:30 1021 + 0,6
Ortszeit Schneehöhe (cm)
Fr, 22.06. 14:00 -
Fr, 22.06. 8:00 -
Fr, 22.06. 2:00 -
Do, 21.06. 20:00 -
Do, 21.06. 14:00 -
Do, 21.06. 8:00 -
Do, 21.06. 2:00 -
Mi, 20.06. 20:00 -
Ortszeit Schneehöhe (cm)
Fr, 22.06. 16:30 -
Fr, 22.06. 16:20 -
Fr, 22.06. 16:10 -
Fr, 22.06. 16:00 -
Fr, 22.06. 15:50 -
Fr, 22.06. 15:40 -
Fr, 22.06. 15:30 -
Fr, 22.06. 15:00 -
Fr, 22.06. 14:30 -
Fr, 22.06. 14:00 -
Fr, 22.06. 13:30 -
Link zu dieser Seite / Seite empfehlen

Das Wetter in ...